Time;durP1;ratioP1;P1;durP2;ratioP2;P2;SDS_P1;SDS_P2;PMS_P1;PMS_P2;Temp;Humidity;BMP_temperature;BMP_pressure;BME280_temperature;BME280_humidity;BME280_pressure;Samples;Min_cycle;Max_cycle;Signal;HPM_P1;HPM_P2
2023/07/27 00:02:18;;;;;;;13.65;5.85;;;;;;;29.84;47.32;100009.34;5100494;27;20408;-82
2023/07/27 00:04:44;;;;;;;13.43;5.28;;;;;;;29.88;46.97;100028.97;5101863;28;20027;-84
2023/07/27 00:07:10;;;;;;;14.30;5.63;;;;;;;29.88;46.94;100042.44;5108443;28;20077;-83
2023/07/27 00:09:35;;;;;;;12.68;5.85;;;;;;;29.87;47.46;100040.66;5093997;28;20516;-82
2023/07/27 00:12:01;;;;;;;13.68;6.15;;;;;;;29.81;47.13;100034.56;5092918;28;20027;-82
2023/07/27 00:14:26;;;;;;;12.25;6.65;;;;;;;29.92;47.29;100054.84;5098952;28;20024;-82
2023/07/27 00:16:52;;;;;;;13.93;6.07;;;;;;;29.88;47.46;100051.38;5101589;28;20102;-82
2023/07/27 00:19:18;;;;;;;11.23;5.10;;;;;;;29.81;47.74;100034.56;5094573;28;20028;-82
2023/07/27 00:21:47;;;;;;;13.98;6.13;;;;;;;29.83;47.95;100007.63;5092750;28;20027;-83
2023/07/27 00:24:12;;;;;;;12.68;6.25;;;;;;;29.96;47.68;100030.44;5097954;27;20075;-82
2023/07/27 00:26:38;;;;;;;13.80;6.03;;;;;;;29.94;47.85;100036.81;5094221;28;20361;-82
2023/07/27 00:29:04;;;;;;;9.30;5.88;;;;;;;29.93;47.73;100045.81;5094356;28;20020;-81
2023/07/27 00:31:30;;;;;;;10.70;5.65;;;;;;;29.93;47.82;100053.88;5091721;28;20047;-83
2023/07/27 00:33:55;;;;;;;14.50;6.72;;;;;;;29.92;47.67;100041.38;5098388;28;20111;-82
2023/07/27 00:36:21;;;;;;;11.55;5.65;;;;;;;29.94;47.92;100061.91;5101291;28;20031;-82
2023/07/27 00:38:46;;;;;;;10.57;5.68;;;;;;;29.79;47.23;100047.22;5096229;27;20417;-83
2023/07/27 00:41:12;;;;;;;11.48;5.90;;;;;;;29.85;47.96;100039.88;5102327;28;20119;-83
2023/07/27 00:43:38;;;;;;;10.88;5.47;;;;;;;29.89;47.92;100049.56;5092229;28;20020;-83
2023/07/27 00:46:04;;;;;;;11.20;5.28;;;;;;;29.64;47.80;100013.66;5096927;28;20031;-82
2023/07/27 00:48:29;;;;;;;9.70;5.70;;;;;;;29.61;47.95;100021.84;5093381;28;20012;-83
2023/07/27 00:50:55;;;;;;;9.75;5.82;;;;;;;29.66;47.73;100036.94;5101738;28;20031;-83
2023/07/27 00:53:21;;;;;;;9.73;5.60;;;;;;;29.80;48.29;100069.63;5078799;28;20028;-84
2023/07/27 00:55:47;;;;;;;8.57;4.95;;;;;;;29.59;47.67;100010.25;5102650;28;20416;-84
2023/07/27 00:58:13;;;;;;;8.57;5.35;;;;;;;29.46;47.57;100006.22;5106998;28;20024;-83
2023/07/27 01:00:44;;;;;;;11.00;5.10;;;;;;;29.76;47.71;100063.50;5093394;28;20463;-81
2023/07/27 01:03:09;;;;;;;10.48;5.43;;;;;;;29.78;47.65;100063.41;5096453;28;20016;-82
2023/07/27 01:05:36;;;;;;;8.80;5.40;;;;;;;29.82;47.43;100095.56;5101852;28;20085;-82
2023/07/27 01:08:02;;;;;;;9.35;5.32;;;;;;;29.86;47.58;100122.34;5093611;28;20031;-82
2023/07/27 01:10:42;;;;;;;11.68;5.30;;;;;;;29.82;47.49;100156.56;5104936;28;20027;-81
2023/07/27 01:13:23;;;;;;;8.65;5.43;;;;;;;29.85;47.46;100171.75;5118196;27;20107;-82
2023/07/27 01:15:56;;;;;;;8.43;5.50;;;;;;;29.91;47.78;100191.25;5091755;28;20663;-82
2023/07/27 01:18:37;;;;;;;11.13;6.03;;;;;;;29.93;47.61;100189.41;5074920;28;20451;-83
2023/07/27 01:21:45;;;;;;;9.32;5.65;;;;;;;29.94;47.98;100196.53;5093140;28;20095;-82
2023/07/27 01:24:36;;;;;;;11.57;5.32;;;;;;;29.93;48.20;100199.25;5034025;28;20187;-82
2023/07/27 01:27:14;;;;;;;10.85;5.47;;;;;;;29.79;47.86;100175.53;5050373;28;20102;-82
2023/07/27 01:30:12;;;;;;;11.20;5.72;;;;;;;29.92;47.89;100202.91;5082217;28;20032;-82
2023/07/27 01:32:39;;;;;;;9.65;5.22;;;;;;;29.92;47.71;100198.38;5095406;28;20085;-84
2023/07/27 01:35:09;;;;;;;9.93;5.40;;;;;;;29.93;47.93;100210.03;5099692;28;20020;-83
2023/07/27 01:37:35;;;;;;;10.65;5.75;;;;;;;29.93;48.07;100224.38;5092028;28;20020;-83
2023/07/27 01:40:02;;;;;;;8.32;5.38;;;;;;;29.92;48.01;100230.69;5097637;28;20024;-83
2023/07/27 01:42:29;;;;;;;8.63;5.20;;;;;;;29.78;47.90;100211.44;5098407;28;20400;-83
2023/07/27 01:44:56;;;;;;;11.60;6.03;;;;;;;29.83;47.51;100226.50;5108108;28;20052;-83
2023/07/27 01:47:22;;;;;;;7.28;5.22;;;;;;;29.90;48.05;100234.38;5108026;28;20032;-82
2023/07/27 01:49:49;;;;;;;9.10;5.60;;;;;;;29.80;48.17;100220.34;5090269;28;20016;-82
2023/07/27 01:52:16;;;;;;;8.57;5.38;;;;;;;29.89;48.11;100246.97;5092100;28;20031;-82
2023/07/27 01:54:41;;;;;;;7.88;5.35;;;;;;;29.82;47.82;100226.56;5089808;28;20123;-82
2023/07/27 01:57:08;;;;;;;6.85;5.20;;;;;;;29.88;48.10;100249.69;5098385;28;20106;-83
2023/07/27 01:59:34;;;;;;;7.72;5.32;;;;;;;29.81;47.92;100241.84;5101890;28;20043;-82
2023/07/27 02:02:01;;;;;;;7.03;5.25;;;;;;;29.82;48.11;100257.06;5093216;28;20084;-82
2023/07/27 02:04:27;;;;;;;7.45;5.43;;;;;;;29.88;48.21;100269.41;5100435;28;20048;-82
2023/07/27 02:06:53;;;;;;;10.10;5.53;;;;;;;29.87;48.04;100270.38;5091962;28;20047;-82
2023/07/27 02:09:18;;;;;;;9.88;5.90;;;;;;;29.89;47.94;100281.97;5092990;28;20067;-82
2023/07/27 02:11:46;;;;;;;9.45;5.45;;;;;;;29.73;48.33;100268.13;5101053;28;20541;-83
2023/07/27 02:14:20;;;;;;;9.10;5.55;;;;;;;29.70;48.01;100260.16;5099073;28;20036;-82
2023/07/27 02:16:53;;;;;;;8.93;5.65;;;;;;;29.62;48.14;100243.34;5113678;27;20024;-83
2023/07/27 02:19:21;;;;;;;10.27;5.22;;;;;;;29.83;48.34;100285.72;5102161;28;20032;-83
2023/07/27 02:21:48;;;;;;;7.07;5.57;;;;;;;29.83;47.89;100303.69;5091325;28;20509;-83
2023/07/27 02:24:14;;;;;;;8.45;6.20;;;;;;;29.61;47.86;100273.88;5096271;28;20035;-83
2023/07/27 02:26:40;;;;;;;7.93;5.82;;;;;;;29.82;48.03;100318.06;5087713;28;20028;-83
2023/07/27 02:29:06;;;;;;;7.13;5.78;;;;;;;29.76;48.19;100312.88;5089583;28;20028;-83
2023/07/27 02:31:32;;;;;;;8.93;5.65;;;;;;;29.80;48.05;100311.84;5096493;28;20426;-83
2023/07/27 02:33:58;;;;;;;7.65;5.53;;;;;;;29.73;48.29;100300.41;5097279;28;20035;-83
2023/07/27 02:36:24;;;;;;;9.10;5.88;;;;;;;29.80;48.02;100309.16;5091182;28;20496;-83
2023/07/27 02:38:49;;;;;;;7.75;5.80;;;;;;;29.76;48.38;100300.34;5099435;28;20024;-83
2023/07/27 02:41:16;;;;;;;9.82;5.53;;;;;;;29.74;48.16;100307.56;5110589;27;20034;-83
2023/07/27 02:43:41;;;;;;;7.85;5.15;;;;;;;29.69;48.17;100287.09;5097639;28;20023;-83
2023/07/27 02:46:08;;;;;;;9.40;5.70;;;;;;;29.77;48.07;100304.78;5103959;28;20110;-83
2023/07/27 02:48:34;;;;;;;8.95;5.70;;;;;;;29.75;48.18;100312.00;5106290;28;20024;-83
2023/07/27 02:51:00;;;;;;;9.63;5.75;;;;;;;29.60;48.11;100269.44;5094322;28;20477;-83
2023/07/27 02:53:26;;;;;;;8.35;6.22;;;;;;;29.73;48.02;100294.16;5092916;28;20602;-83
2023/07/27 02:56:01;;;;;;;8.13;5.65;;;;;;;29.76;48.20;100288.66;5094154;28;20051;-83
2023/07/27 02:58:27;;;;;;;9.38;5.57;;;;;;;29.75;48.23;100278.84;5095020;28;20098;-83
2023/07/27 03:00:54;;;;;;;7.97;5.93;;;;;;;29.68;48.12;100264.69;5104310;28;20106;-83
2023/07/27 03:03:20;;;;;;;7.85;5.68;;;;;;;29.73;48.43;100270.81;5092384;28;20481;-82
2023/07/27 03:05:45;;;;;;;6.82;5.55;;;;;;;29.62;48.39;100254.13;5091344;28;20032;-82
2023/07/27 03:08:11;;;;;;;8.48;5.53;;;;;;;29.64;48.33;100249.56;5091484;28;20386;-83
2023/07/27 03:10:38;;;;;;;7.35;5.38;;;;;;;29.71;48.27;100269.97;5090264;28;20047;-82
2023/07/27 03:13:04;;;;;;;7.32;5.70;;;;;;;29.43;48.51;100230.50;5091251;28;20507;-82
2023/07/27 03:15:29;;;;;;;7.07;5.53;;;;;;;29.52;48.22;100250.84;5095013;28;20031;-82
2023/07/27 03:17:55;;;;;;;9.30;6.00;;;;;;;29.70;48.50;100300.53;5102070;28;20031;-82
2023/07/27 03:20:23;;;;;;;7.55;5.50;;;;;;;29.58;48.14;100293.69;5089863;28;20382;-81
2023/07/27 03:22:49;;;;;;;8.45;5.45;;;;;;;29.69;48.40;100311.31;5091570;28;20016;-83
2023/07/27 03:25:15;;;;;;;6.82;5.60;;;;;;;29.51;48.31;100284.06;5111443;28;20035;-84
2023/07/27 03:27:40;;;;;;;8.20;5.93;;;;;;;29.65;48.24;100315.91;5094775;28;20076;-82
2023/07/27 03:30:07;;;;;;;7.35;5.78;;;;;;;29.61;48.31;100301.69;5106220;28;20039;-83
2023/07/27 03:32:33;;;;;;;8.30;5.93;;;;;;;29.65;48.45;100299.75;5103182;28;20031;-84
2023/07/27 03:34:58;;;;;;;7.35;5.40;;;;;;;29.67;48.19;100297.88;5092353;28;20020;-83
2023/07/27 03:37:24;;;;;;;7.68;5.43;;;;;;;29.50;48.51;100262.59;5071081;28;20020;-83
2023/07/27 03:39:50;;;;;;;6.18;5.38;;;;;;;29.52;48.11;100269.66;5091444;28;20031;-82
2023/07/27 03:42:16;;;;;;;5.82;5.22;;;;;;;29.65;48.25;100286.28;5088268;28;20031;-82
2023/07/27 03:44:43;;;;;;;7.70;5.53;;;;;;;29.53;48.14;100260.69;5100181;28;20416;-83
2023/07/27 03:47:09;;;;;;;6.55;5.72;;;;;;;29.60;47.86;100267.63;5098080;28;20553;-83
2023/07/27 03:49:35;;;;;;;7.22;5.43;;;;;;;29.54;48.49;100243.59;5088631;28;20103;-84
2023/07/27 03:52:01;;;;;;;7.07;5.80;;;;;;;29.55;48.23;100244.47;5075206;28;20027;-84
2023/07/27 03:54:26;;;;;;;7.93;5.55;;;;;;;29.63;48.24;100280.09;5085013;28;20031;-83
2023/07/27 03:56:52;;;;;;;7.72;5.65;;;;;;;29.49;48.37;100285.06;5100150;28;20106;-83
2023/07/27 03:59:18;;;;;;;6.70;5.90;;;;;;;29.44;48.24;100290.56;5097322;28;20055;-83
2023/07/27 04:01:43;;;;;;;7.53;5.47;;;;;;;29.26;48.29;100249.00;5096537;28;20015;-82
2023/07/27 04:04:09;;;;;;;7.43;5.72;;;;;;;29.59;48.37;100303.53;5092271;28;20102;-82
2023/07/27 04:06:34;;;;;;;7.30;5.93;;;;;;;29.37;48.69;100278.25;5094093;28;20514;-90
2023/07/27 04:09:00;;;;;;;7.20;5.50;;;;;;;29.44;48.31;100304.00;5097947;28;20023;-83
2023/07/27 04:11:26;;;;;;;6.28;5.53;;;;;;;29.33;48.63;100288.22;5091708;28;20028;-83
2023/07/27 04:13:51;;;;;;;7.45;5.82;;;;;;;29.32;48.38;100288.28;5092793;28;20024;-85
2023/07/27 04:16:19;;;;;;;6.88;5.45;;;;;;;29.54;48.54;100329.69;5092075;28;20174;-85
2023/07/27 04:18:47;;;;;;;7.50;5.18;;;;;;;29.56;48.58;100332.34;5103203;28;20515;-85
2023/07/27 04:21:12;;;;;;;7.32;5.35;;;;;;;29.40;48.31;100310.41;5105214;28;20032;-84
2023/07/27 04:23:38;;;;;;;6.32;5.32;;;;;;;29.22;48.40;100276.91;5075442;28;20043;-83
2023/07/27 04:26:04;;;;;;;9.02;5.95;;;;;;;29.44;48.64;100333.59;5097242;28;20397;-83
2023/07/27 04:28:29;;;;;;;7.93;5.65;;;;;;;29.34;48.54;100324.06;5102687;28;20084;-85
2023/07/27 04:30:55;;;;;;;6.95;6.10;;;;;;;29.45;48.56;100348.81;5096006;28;20465;-85
2023/07/27 04:33:21;;;;;;;9.57;5.68;;;;;;;29.54;48.56;100367.38;5094433;27;20493;-85
2023/07/27 04:35:46;;;;;;;6.95;5.55;;;;;;;29.32;48.59;100334.88;5096565;28;20028;-82
2023/07/27 04:38:12;;;;;;;6.78;5.40;;;;;;;29.36;48.73;100355.38;5108577;28;20488;-85
2023/07/27 04:40:37;;;;;;;5.95;5.35;;;;;;;29.51;48.50;100385.44;5104000;28;20026;-84
2023/07/27 04:43:03;;;;;;;7.70;4.95;;;;;;;29.37;48.52;100361.63;5104149;28;20110;-84
2023/07/27 04:45:29;;;;;;;6.70;4.97;;;;;;;29.53;48.47;100380.88;5096179;28;20076;-83
2023/07/27 04:47:54;;;;;;;6.28;4.90;;;;;;;29.28;48.36;100332.31;5101398;28;20594;-82
2023/07/27 04:50:20;;;;;;;5.47;4.82;;;;;;;29.52;48.49;100379.97;5102081;28;20023;-83
2023/07/27 04:52:46;;;;;;;5.65;4.93;;;;;;;29.25;48.58;100340.47;5096871;28;20031;-82
2023/07/27 04:55:11;;;;;;;9.18;5.10;;;;;;;29.43;48.61;100378.47;5096717;28;20031;-82
2023/07/27 04:57:37;;;;;;;7.97;5.10;;;;;;;29.32;48.22;100358.22;5105404;27;20489;-82
2023/07/27 05:00:06;;;;;;;5.40;4.90;;;;;;;29.28;48.25;100367.28;5106009;28;20049;-82
2023/07/27 05:02:31;;;;;;;6.68;5.20;;;;;;;29.19;48.46;100352.31;5102968;28;20016;-85
2023/07/27 05:04:57;;;;;;;6.45;4.63;;;;;;;29.46;48.59;100396.31;5081981;28;20024;-85
2023/07/27 05:07:23;;;;;;;5.97;5.03;;;;;;;29.48;48.25;100396.28;5105575;28;20172;-83
2023/07/27 05:09:48;;;;;;;7.70;4.28;;;;;;;29.35;48.63;100380.50;5110429;28;20625;-84
2023/07/27 05:12:33;;;;;;;5.55;4.50;;;;;;;29.05;48.31;100330.28;5107146;28;20020;-85
2023/07/27 05:15:01;;;;;;;7.30;4.55;;;;;;;29.06;48.32;100324.84;5093347;28;20106;-84
2023/07/27 05:17:27;;;;;;;6.18;4.50;;;;;;;29.19;48.35;100347.81;5092884;28;20485;-85
2023/07/27 05:19:53;;;;;;;4.95;4.55;;;;;;;29.41;48.17;100391.06;5094279;28;20090;-85
2023/07/27 05:22:19;;;;;;;5.35;4.50;;;;;;;29.27;47.80;100389.72;5091448;28;20026;-86
2023/07/27 05:24:45;;;;;;;6.28;4.53;;;;;;;29.28;47.90;100396.88;5103808;28;20027;-85
2023/07/27 05:27:10;;;;;;;4.55;4.03;;;;;;;29.07;47.80;100352.63;5092848;28;20024;-84
2023/07/27 05:29:36;;;;;;;7.78;4.85;;;;;;;29.32;48.06;100396.72;5092582;28;20024;-86
2023/07/27 05:32:02;;;;;;;5.03;4.53;;;;;;;29.42;47.94;100417.06;5084917;28;20113;-84
2023/07/27 05:34:28;;;;;;;5.40;3.75;;;;;;;29.31;48.07;100402.16;5092961;28;20477;-84
2023/07/27 05:36:53;;;;;;;5.50;4.10;;;;;;;29.19;48.15;100400.72;5103193;28;20023;-83
2023/07/27 05:39:19;;;;;;;6.15;4.10;;;;;;;29.25;47.98;100402.31;5093229;28;20020;-85
2023/07/27 05:41:45;;;;;;;3.97;3.58;;;;;;;28.81;47.67;100340.81;5094910;28;20503;-85
2023/07/27 05:44:10;;;;;;;5.28;4.25;;;;;;;28.79;47.68;100340.00;5091610;28;20023;-85
2023/07/27 05:46:36;;;;;;;6.43;3.90;;;;;;;29.12;47.66;100408.06;5096488;28;20027;-85
2023/07/27 05:49:03;;;;;;;4.72;3.90;;;;;;;29.34;47.71;100455.88;5098794;28;20016;-83
2023/07/27 05:51:29;;;;;;;5.78;4.05;;;;;;;29.13;47.19;100414.34;5091746;28;20116;-83
2023/07/27 05:53:54;;;;;;;6.05;3.90;;;;;;;29.26;47.44;100449.84;5092230;28;20183;-85
2023/07/27 05:56:20;;;;;;;3.85;3.45;;;;;;;29.29;47.25;100455.97;5094022;27;20049;-84
2023/07/27 05:58:49;;;;;;;4.20;3.80;;;;;;;29.19;47.36;100444.63;5098811;28;20039;-84
2023/07/27 06:01:16;;;;;;;6.10;3.47;;;;;;;29.27;47.13;100465.03;5099094;28;20024;-84
2023/07/27 06:03:42;;;;;;;3.58;3.28;;;;;;;29.25;46.91;100453.44;5101348;28;20023;-82
2023/07/27 06:06:07;;;;;;;4.53;3.47;;;;;;;29.08;47.10;100433.22;5095565;27;20116;-83
2023/07/27 06:08:33;;;;;;;5.90;3.42;;;;;;;29.20;47.19;100441.00;5092363;27;20035;-82
2023/07/27 06:11:09;;;;;;;4.90;3.40;;;;;;;29.21;46.89;100442.78;5092541;28;20039;-85
2023/07/27 06:13:38;;;;;;;5.03;3.47;;;;;;;29.12;46.64;100434.06;5097606;28;20119;-83
2023/07/27 06:16:04;;;;;;;5.10;3.70;;;;;;;29.09;46.84;100435.00;5089113;28;20035;-83
2023/07/27 06:18:30;;;;;;;5.63;3.33;;;;;;;28.99;46.74;100412.88;5097818;28;20035;-86
2023/07/27 06:20:57;;;;;;;3.70;2.90;;;;;;;29.05;46.76;100433.31;5094305;28;20035;-83
2023/07/27 06:23:22;;;;;;;5.00;3.03;;;;;;;29.10;46.80;100422.47;5092743;28;21011;-85
2023/07/27 06:25:49;;;;;;;4.70;3.05;;;;;;;29.03;46.60;100411.84;5100606;28;20035;-84
2023/07/27 06:28:15;;;;;;;3.58;2.88;;;;;;;29.08;46.95;100422.47;5092588;28;20020;-82
2023/07/27 06:30:41;;;;;;;4.70;3.28;;;;;;;29.11;46.81;100410.81;5094196;28;20035;-82
2023/07/27 06:33:06;;;;;;;4.47;2.88;;;;;;;29.23;46.61;100418.50;5099055;28;20037;-81
2023/07/27 06:35:32;;;;;;;3.17;2.88;;;;;;;29.06;46.20;100396.56;5091228;28;20504;-84
2023/07/27 06:38:00;;;;;;;3.70;3.30;;;;;;;29.16;46.92;100420.50;5098862;28;20031;-83
2023/07/27 06:40:26;;;;;;;3.30;2.90;;;;;;;28.87;47.06;100383.66;5080399;28;20031;-85
2023/07/27 06:42:55;;;;;;;5.25;2.92;;;;;;;29.15;46.72;100442.94;5080354;28;20406;-85
2023/07/27 06:45:21;;;;;;;3.80;2.92;;;;;;;28.92;46.58;100402.34;5101903;28;20458;-85
2023/07/27 06:47:46;;;;;;;3.20;2.80;;;;;;;29.16;46.88;100452.75;5094583;28;20024;-84
2023/07/27 06:50:12;;;;;;;3.83;2.83;;;;;;;28.95;46.94;100427.31;5101791;28;20036;-84
2023/07/27 06:52:38;;;;;;;3.63;2.40;;;;;;;28.96;46.68;100436.28;5096394;28;20381;-86
2023/07/27 06:55:06;;;;;;;3.00;2.80;;;;;;;28.78;46.71;100418.84;5095351;28;20028;-86
2023/07/27 06:57:31;;;;;;;3.38;2.95;;;;;;;29.16;46.21;100473.41;5092876;28;20133;-83
2023/07/27 06:59:57;;;;;;;4.80;2.67;;;;;;;29.13;46.53;100479.75;5100126;28;20028;-83
2023/07/27 07:02:23;;;;;;;4.22;2.33;;;;;;;29.00;46.29;100459.47;5106219;28;20480;-84
2023/07/27 07:04:49;;;;;;;2.53;2.33;;;;;;;29.10;46.49;100471.75;5101994;28;20035;-82
2023/07/27 07:07:14;;;;;;;2.90;2.55;;;;;;;29.05;46.46;100465.59;5102351;28;20035;-83
2023/07/27 07:09:40;;;;;;;2.50;2.30;;;;;;;29.06;46.38;100466.47;5095408;28;20111;-83
2023/07/27 07:12:06;;;;;;;3.75;2.58;;;;;;;29.09;46.21;100471.78;5098334;28;20115;-82
2023/07/27 07:14:33;;;;;;;4.18;2.60;;;;;;;29.06;46.06;100461.09;5100023;28;20070;-82
2023/07/27 07:16:59;;;;;;;2.95;2.28;;;;;;;28.98;46.38;100455.94;5089361;28;20063;-84
2023/07/27 07:19:25;;;;;;;3.20;2.22;;;;;;;28.96;46.07;100436.28;5100441;28;20031;-82
2023/07/27 07:21:57;;;;;;;2.65;2.25;;;;;;;28.89;46.27;100399.72;5097170;28;20020;-82
2023/07/27 07:24:23;;;;;;;4.18;2.25;;;;;;;28.85;46.14;100400.72;5097679;28;20598;-82
2023/07/27 07:26:51;;;;;;;3.80;2.40;;;;;;;28.83;46.02;100409.72;5103791;28;20035;-82
2023/07/27 07:29:17;;;;;;;3.63;2.17;;;;;;;28.98;46.03;100451.44;5091853;28;20028;-86
2023/07/27 07:36:25;;;;;;;2.53;2.03;;;;;;;28.96;45.64;100458.66;5087512;28;20144;-86
2023/07/27 07:38:53;;;;;;;3.33;2.05;;;;;;;28.98;45.83;100475.63;5097681;28;20429;-85
2023/07/27 07:41:19;;;;;;;3.67;2.25;;;;;;;28.79;45.61;100431.38;5095205;27;20044;-85
2023/07/27 07:44:30;;;;;;;3.67;2.20;;;;;;;29.01;45.57;100482.72;5109534;27;20028;-85
2023/07/27 07:47:51;;;;;;;2.45;2.05;;;;;;;29.00;45.46;100470.22;5104175;28;20054;-85
2023/07/27 07:51:08;;;;;;;3.28;2.00;;;;;;;28.92;45.83;100477.59;5083053;28;20128;-89
2023/07/27 07:53:56;;;;;;;3.90;1.80;;;;;;;28.94;45.79;100473.06;5093989;27;20077;-86
2023/07/27 07:56:39;;;;;;;2.00;1.90;;;;;;;28.91;45.65;100465.94;5092855;28;20028;-86
2023/07/27 07:59:10;;;;;;;2.20;1.98;;;;;;;28.60;45.72;100404.09;5102405;27;20032;-88
2023/07/27 08:01:57;;;;;;;1.92;1.77;;;;;;;28.95;45.80;100456.00;5064878;28;20034;-87
2023/07/27 08:04:30;;;;;;;2.47;1.85;;;;;;;28.57;45.79;100409.53;5105424;27;20047;-86
2023/07/27 08:07:49;;;;;;;2.92;1.63;;;;;;;28.78;46.02;100451.97;5085950;28;20040;-88
2023/07/27 08:10:28;;;;;;;2.03;1.75;;;;;;;28.65;45.93;100420.09;5089529;28;20107;-86
2023/07/27 08:13:19;;;;;;;2.33;1.80;;;;;;;28.52;45.77;100408.78;5102083;28;20028;-85
2023/07/27 08:20:17;;;;;;;3.55;1.90;;;;;;;28.79;45.64;100475.25;5106374;27;20093;-86
2023/07/27 08:22:46;;;;;;;2.15;1.83;;;;;;;28.72;45.98;100487.03;5103120;28;20030;-86
2023/07/27 08:25:22;;;;;;;3.75;2.20;;;;;;;28.13;45.69;100381.97;5095525;27;20118;-87
2023/07/27 08:27:59;;;;;;;2.28;1.70;;;;;;;28.63;45.41;100460.44;5105369;27;20059;-87
2023/07/27 08:30:32;;;;;;;1.95;1.80;;;;;;;28.25;45.63;100384.34;5095328;28;20028;-86
2023/07/27 08:40:21;;;;;;;2.78;1.80;;;;;;;28.78;45.59;100512.91;5107214;27;20181;-86
2023/07/27 08:43:00;;;;;;;5.18;2.13;;;;;;;28.77;45.57;100498.59;5102497;27;20016;-85
2023/07/27 08:46:26;;;;;;;2.25;2.03;;;;;;;28.77;45.66;100470.84;5074896;28;20024;-84
2023/07/27 08:48:58;;;;;;;3.90;1.75;;;;;;;28.36;45.57;100425.25;5089239;28;20028;-86
2023/07/27 08:51:24;;;;;;;3.33;2.10;;;;;;;28.46;45.61;100439.31;5085194;28;20047;-88
2023/07/27 09:00:59;;;;;;;4.43;2.10;;;;;;;28.72;45.54;100504.97;5109648;28;20112;-88
2023/07/27 09:03:26;;;;;;;3.88;2.10;;;;;;;28.30;45.63;100476.44;5096964;28;20526;-87
2023/07/27 09:13:48;;;;;;;3.35;2.22;;;;;;;28.66;46.12;100628.75;5010065;28;20097;-88
2023/07/27 09:16:23;;;;;;;5.28;2.10;;;;;;;28.26;46.30;100584.84;4956651;28;20602;-89
2023/07/27 09:19:15;;;;;;;5.20;2.10;;;;;;;28.61;46.16;100616.28;5015228;28;20128;-87
2023/07/27 09:21:49;;;;;;;4.95;2.60;;;;;;;28.30;46.43;100561.47;5094784;28;20108;-88
2023/07/27 09:24:16;;;;;;;6.00;2.30;;;;;;;28.06;46.08;100503.84;5070869;28;20036;-88
2023/07/27 09:26:46;;;;;;;7.80;2.60;;;;;;;28.22;46.54;100526.75;5074049;28;20081;-88
2023/07/27 09:29:21;;;;;;;3.63;2.50;;;;;;;28.46;46.52;100564.69;5077396;28;20034;-91
2023/07/27 09:31:59;;;;;;;6.30;2.53;;;;;;;28.29;46.36;100535.53;5069868;28;20051;-92
2023/07/27 09:34:31;;;;;;;7.45;2.67;;;;;;;28.08;46.64;100489.47;5074580;28;20501;-91
2023/07/27 09:37:02;;;;;;;4.50;2.70;;;;;;;28.59;46.61;100587.69;5084618;28;20023;-91
2023/07/27 09:39:31;;;;;;;7.07;2.85;;;;;;;28.22;46.75;100557.16;5087808;28;20047;-88
2023/07/27 09:41:58;;;;;;;5.85;3.10;;;;;;;28.51;46.42;100601.34;5062682;28;20115;-90
2023/07/27 09:44:26;;;;;;;4.45;2.80;;;;;;;28.00;46.57;100500.41;5091095;28;20564;-92
2023/07/27 09:46:52;;;;;;;7.85;2.80;;;;;;;28.25;46.80;100555.34;5083720;28;20055;-88
2023/07/27 09:49:20;;;;;;;4.55;2.97;;;;;;;27.87;46.89;100488.13;5090183;27;20102;-90
2023/07/27 09:51:51;;;;;;;6.72;2.80;;;;;;;28.19;46.70;100522.34;5082184;28;20028;-88
2023/07/27 09:54:19;;;;;;;3.88;2.50;;;;;;;28.00;47.05;100478.00;5074477;28;20024;-91
2023/07/27 09:56:46;;;;;;;5.13;2.30;;;;;;;28.48;46.78;100530.63;5078796;28;20035;-90
2023/07/27 09:59:13;;;;;;;4.55;2.60;;;;;;;28.15;47.01;100456.22;5061710;28;20079;-90
2023/07/27 10:01:41;;;;;;;3.65;2.58;;;;;;;27.99;47.01;100417.22;5078739;28;20024;-90
2023/07/27 10:04:07;;;;;;;5.38;2.20;;;;;;;27.95;47.00;100405.66;5073512;27;20027;-89
2023/07/27 10:06:36;;;;;;;5.65;2.40;;;;;;;27.72;47.35;100348.94;5081928;28;20182;-86
2023/07/27 10:09:18;;;;;;;5.35;2.70;;;;;;;27.77;47.19;100336.28;5086042;28;20011;-88
2023/07/27 10:11:57;;;;;;;4.78;2.60;;;;;;;28.28;46.86;100416.50;5072717;28;20497;-90
2023/07/27 10:14:27;;;;;;;5.13;2.75;;;;;;;27.87;46.60;100328.94;5094362;28;20461;-88
2023/07/27 10:17:09;;;;;;;4.32;2.50;;;;;;;28.20;46.93;100376.41;5082509;28;20504;-89
2023/07/27 10:19:47;;;;;;;4.63;2.70;;;;;;;27.78;46.66;100336.25;5080810;28;20103;-89
2023/07/27 10:22:17;;;;;;;4.57;2.63;;;;;;;27.99;46.97;100399.31;5078352;27;20023;-92
2023/07/27 10:25:13;;;;;;;;;;;;;;;;;;;;;
2023/07/27 10:28:23;;;;;;;4.50;2.65;;;;;;;28.35;46.51;100487.06;5118694;27;20031;-87
2023/07/27 10:31:20;;;;;;;3.65;2.35;;;;;;;28.16;46.76;100465.13;5093898;28;20059;-87
2023/07/27 10:34:39;;;;;;;3.58;2.50;;;;;;;27.99;46.56;100473.56;5111599;27;20079;-87
2023/07/27 10:37:16;;;;;;;4.45;2.40;;;;;;;27.63;46.66;100418.91;5016239;28;20052;-86
2023/07/27 10:39:45;;;;;;;4.65;2.30;;;;;;;28.27;46.75;100556.19;5042831;28;20502;-85
2023/07/27 10:42:13;;;;;;;3.78;2.20;;;;;;;27.89;46.96;100497.03;5085145;28;20556;-87
2023/07/27 10:44:45;;;;;;;2.45;2.25;;;;;;;27.96;46.91;100474.53;5093544;28;20118;-86
2023/07/27 10:47:25;;;;;;;4.40;2.30;;;;;;;27.93;46.63;100468.34;5106252;28;20020;-86
2023/07/27 10:49:58;;;;;;;4.45;2.35;;;;;;;28.13;46.90;100521.56;5094473;28;20030;-87
2023/07/27 10:52:28;;;;;;;4.07;2.05;;;;;;;28.16;46.70;100494.66;5108700;28;20055;-87
2023/07/27 10:54:59;;;;;;;8.15;3.55;;;;;;;27.95;47.64;100499.59;5102190;28;20030;-88
2023/07/27 10:57:29;;;;;;;12.98;3.60;;;;;;;27.66;48.53;100459.06;5076295;28;20023;-86
2023/07/27 10:59:56;;;;;;;4.43;2.90;;;;;;;27.78;47.49;100494.56;5096313;27;20035;-85
2023/07/27 11:02:36;;;;;;;7.82;3.40;;;;;;;27.76;48.09;100479.41;5099635;27;20100;-83
2023/07/27 11:05:11;;;;;;;5.90;2.83;;;;;;;28.02;47.92;100533.47;5098378;28;20027;-84
2023/07/27 11:07:44;;;;;;;7.20;2.80;;;;;;;28.02;48.10;100572.81;5101740;28;20042;-85
2023/07/27 11:10:35;;;;;;;6.93;2.83;;;;;;;27.45;48.13;100517.59;5115056;27;20036;-84
2023/07/27 11:13:25;;;;;;;5.88;3.05;;;;;;;28.04;48.60;100622.00;5111497;27;20032;-84
2023/07/27 11:15:54;;;;;;;8.52;3.10;;;;;;;27.44;48.60;100506.91;5091347;27;20027;-86
2023/07/27 11:18:36;;;;;;;9.60;3.00;;;;;;;27.66;49.00;100550.28;5081561;27;20045;-86
2023/07/27 11:21:02;;;;;;;4.65;3.00;;;;;;;27.60;49.13;100538.78;5104546;27;20031;-85
2023/07/27 11:23:29;;;;;;;7.13;3.58;;;;;;;28.00;48.89;100623.88;5108569;27;20026;-83
2023/07/27 11:25:57;;;;;;;3.35;2.88;;;;;;;27.40;49.13;100527.53;5128864;27;20072;-85
2023/07/27 11:28:24;;;;;;;5.57;2.88;;;;;;;27.42;49.62;100550.72;5123545;27;20659;-85
2023/07/27 11:30:53;;;;;;;4.82;2.70;;;;;;;27.60;49.48;100551.28;5103898;27;20496;-85
2023/07/27 11:33:26;;;;;;;3.45;2.58;;;;;;;27.71;49.85;100526.94;5114915;27;20027;-85
2023/07/27 11:35:52;;;;;;;5.97;2.83;;;;;;;27.50;49.05;100454.03;5092103;27;20027;-84
2023/07/27 11:38:18;;;;;;;6.55;2.80;;;;;;;27.82;49.33;100481.97;5102850;27;20052;-84
2023/07/27 11:40:47;;;;;;;5.05;2.65;;;;;;;27.79;49.34;100479.34;5108525;27;20530;-86
2023/07/27 11:43:13;;;;;;;4.88;2.53;;;;;;;27.80;49.09;100524.06;5099635;27;20035;-87
2023/07/27 11:45:40;;;;;;;6.53;3.33;;;;;;;27.86;49.31;100549.91;5106639;27;20515;-88
2023/07/27 11:48:06;;;;;;;5.03;2.75;;;;;;;27.86;49.57;100557.97;5106220;27;20023;-86
2023/07/27 11:50:37;;;;;;;8.35;3.00;;;;;;;27.84;49.63;100566.00;5123691;27;20507;-84
2023/07/27 11:53:12;;;;;;;;;;;;;;;;;;;;;
2023/07/27 11:55:50;;;;;;;3.22;2.92;;;;;;;27.38;49.79;100484.66;5126530;27;20514;-89
2023/07/27 12:02:15;;;;;;;3.58;2.85;;;;;;;27.89;49.80;100556.09;5115933;27;20560;-88
2023/07/27 12:05:00;;;;;;;2.92;2.38;;;;;;;27.74;49.73;100517.00;5109069;27;20109;-86
2023/07/27 12:07:32;;;;;;;4.63;2.92;;;;;;;27.28;49.81;100436.59;5090848;27;20039;-87
2023/07/27 12:09:58;;;;;;;4.80;3.00;;;;;;;27.46;49.71;100480.94;5073467;28;20055;-86
2023/07/27 12:12:24;;;;;;;3.47;2.65;;;;;;;27.77;49.69;100518.72;5108020;27;20041;-82
2023/07/27 12:14:54;;;;;;;4.60;2.97;;;;;;;27.56;49.77;100499.50;5127300;27;20100;-84
2023/07/27 12:17:23;;;;;;;6.47;2.97;;;;;;;27.70;50.25;100519.78;5129183;27;20107;-85